Ten Mile, Tennessee
Current Conditions -  °F | °C
As of 5:55 AM on Sunday 23 Nov 2014 (Local Time) from KMMI Reporting Station
Overcast Overcast  
Wind Chill: 54°   Ceiling: 2500
Heat Index: 54°   Visibility: 10mi
Dew Point: 46°   Wind: 5mph
Humidity: 77%   Direction: 240°WSW
Pressure: 30.06"   Gusts: NA
Location:  35.67°N, 84.66°W
Report Text: KMMI 231055Z AUTO 24004KT 10SM OVC025 12/08 A3006 RMK
Loading
Personal Weather Stations






























Interactive Weather Map New forecast layout! Learn more

10-Day Weather Forecast

Advertisements
Track Severe Weather on mobile